createdAt,value
2024-04-30T00:01:32.310Z,101902.44
2024-04-30T00:04:01.482Z,101994.34
2024-04-30T00:06:35.298Z,102045.19
2024-04-30T00:09:04.735Z,102032.78
2024-04-30T00:11:48.143Z,102017.44
2024-04-30T00:14:18.154Z,102044.75
2024-04-30T00:16:49.999Z,102042.00
2024-04-30T00:19:18.708Z,102040.50
2024-04-30T00:21:50.568Z,101994.06
2024-04-30T00:24:19.090Z,101939.84
2024-04-30T00:26:50.611Z,102040.50
2024-04-30T00:29:19.075Z,102013.84
2024-04-30T00:31:51.598Z,102053.56
2024-04-30T00:34:20.080Z,102048.97
2024-04-30T00:36:51.559Z,102045.63
2024-04-30T00:39:21.663Z,102042.66
2024-04-30T00:41:55.671Z,102000.97
2024-04-30T00:44:26.025Z,102044.41
2024-04-30T00:46:58.900Z,101980.19
2024-04-30T00:49:27.622Z,102023.22
2024-04-30T00:52:00.361Z,101972.22
2024-04-30T00:54:29.500Z,102003.41
2024-04-30T00:57:01.355Z,102032.63
2024-04-30T00:59:30.116Z,102035.72
2024-04-30T01:02:02.191Z,102030.59
2024-04-30T01:04:34.262Z,102031.69
2024-04-30T01:07:07.932Z,102029.25
2024-04-30T01:09:37.209Z,101947.44
2024-04-30T01:12:09.057Z,102024.50
2024-04-30T01:14:37.423Z,102002.53
2024-04-30T01:17:09.217Z,102018.94
2024-04-30T01:19:38.848Z,102018.84
2024-04-30T01:22:11.339Z,102004.47
2024-04-30T01:24:40.289Z,101914.75
2024-04-30T01:27:11.525Z,102032.88
2024-04-30T01:29:40.409Z,102033.06
2024-04-30T01:32:12.644Z,102014.50
2024-04-30T01:34:41.802Z,102012.31
2024-04-30T01:37:13.463Z,102035.41
2024-04-30T01:39:42.276Z,102020.72
2024-04-30T01:42:13.914Z,102019.50
2024-04-30T01:44:42.874Z,102021.41
2024-04-30T01:47:14.567Z,102015.63
2024-04-30T01:49:44.360Z,102014.06
2024-04-30T01:52:16.263Z,102019.06
2024-04-30T01:54:44.697Z,102022.84
2024-04-30T01:57:18.396Z,102030.06
2024-04-30T01:59:46.659Z,101992.06
2024-04-30T02:02:18.556Z,102021.28
2024-04-30T02:04:52.867Z,102013.63
2024-04-30T02:07:25.407Z,102019.84
2024-04-30T02:09:54.140Z,102023.03
2024-04-30T02:12:25.861Z,101993.13
2024-04-30T02:14:54.326Z,102021.31
2024-04-30T02:17:27.989Z,102018.66
2024-04-30T02:19:56.712Z,102029.06
2024-04-30T02:22:30.372Z,102018.16
2024-04-30T02:25:01.832Z,102009.19
2024-04-30T02:27:34.546Z,101915.38
2024-04-30T02:30:03.012Z,101999.38
2024-04-30T02:32:50.804Z,101998.03
2024-04-30T02:35:22.068Z,101980.47
2024-04-30T02:37:53.526Z,102013.38
2024-04-30T02:40:24.582Z,102012.06
2024-04-30T02:42:55.656Z,102001.81
2024-04-30T02:45:26.699Z,102015.19
2024-04-30T02:47:55.775Z,102009.53
2024-04-30T02:50:26.869Z,102013.94
2024-04-30T02:52:55.633Z,102007.81
2024-04-30T02:55:26.780Z,101974.13
2024-04-30T02:57:55.580Z,102008.56
2024-04-30T03:00:27.057Z,102003.19
2024-04-30T03:02:56.143Z,101991.81
2024-04-30T03:05:27.327Z,101994.94
2024-04-30T03:07:56.110Z,101999.38
2024-04-30T03:10:27.084Z,101998.44
2024-04-30T03:12:57.041Z,101990.09
2024-04-30T03:15:27.753Z,101993.25
2024-04-30T03:17:56.537Z,101984.03
2024-04-30T03:20:28.601Z,101988.09
2024-04-30T03:22:57.960Z,101981.22
2024-04-30T03:25:28.974Z,101974.41
2024-04-30T03:28:01.386Z,101976.94
2024-04-30T03:30:34.009Z,101960.19
2024-04-30T03:33:05.476Z,101901.09
2024-04-30T03:35:37.062Z,101972.16
2024-04-30T03:38:09.163Z,101974.31
2024-04-30T03:40:40.944Z,101907.56
2024-04-30T03:43:13.287Z,101964.25
2024-04-30T03:45:44.498Z,101968.31
2024-04-30T03:48:16.732Z,101958.81
2024-04-30T03:50:51.698Z,101963.06
2024-04-30T03:53:20.586Z,101941.16
2024-04-30T03:55:53.642Z,101959.19
2024-04-30T03:58:23.162Z,101942.75
2024-04-30T04:00:54.939Z,101910.97
2024-04-30T04:03:24.015Z,101948.75
2024-04-30T04:05:55.136Z,101940.69
2024-04-30T04:08:23.928Z,101953.94
2024-04-30T04:11:07.163Z,101942.97
2024-04-30T04:13:58.689Z,101955.75
2024-04-30T04:16:29.690Z,101942.44
2024-04-30T04:19:01.206Z,101955.28
2024-04-30T04:21:32.517Z,101955.06
2024-04-30T04:24:04.078Z,101946.88
2024-04-30T04:26:32.521Z,101938.19
2024-04-30T04:29:03.946Z,101946.25
2024-04-30T04:31:32.626Z,101956.47
2024-04-30T04:34:04.885Z,101959.88
2024-04-30T04:36:33.208Z,101965.81
2024-04-30T04:39:04.939Z,101953.13
2024-04-30T04:41:33.326Z,101941.84
2024-04-30T04:44:04.817Z,101951.41
2024-04-30T04:46:33.245Z,101956.06
2024-04-30T04:49:07.897Z,101920.13
2024-04-30T04:51:36.573Z,101926.53
2024-04-30T04:54:08.296Z,101906.84
2024-04-30T04:56:36.769Z,101918.69
2024-04-30T04:59:08.240Z,101911.72
2024-04-30T05:01:36.650Z,101910.00
2024-04-30T05:04:08.719Z,101911.34
2024-04-30T05:06:41.717Z,101919.41
2024-04-30T05:09:13.244Z,101903.41
2024-04-30T05:11:41.615Z,101900.53
2024-04-30T05:14:13.322Z,101903.94
2024-04-30T05:16:41.791Z,101915.84
2024-04-30T05:19:13.280Z,101913.47
2024-04-30T05:21:41.782Z,101892.53
2024-04-30T05:24:13.184Z,101907.88
2024-04-30T05:26:42.010Z,101893.88
2024-04-30T05:29:13.560Z,101881.97
2024-04-30T05:31:42.154Z,101881.50
2024-04-30T05:34:13.418Z,101897.97
2024-04-30T05:36:41.845Z,101888.72
2024-04-30T05:39:13.076Z,101861.34
2024-04-30T05:41:41.343Z,101851.38
2024-04-30T05:44:12.961Z,101860.44
2024-04-30T05:46:41.447Z,101863.31
2024-04-30T05:49:13.281Z,101860.50
2024-04-30T05:51:43.132Z,101851.78
2024-04-30T05:54:14.967Z,101835.81
2024-04-30T05:56:43.365Z,101810.66
2024-04-30T05:59:14.755Z,101799.25
2024-04-30T06:01:43.100Z,101800.53
2024-04-30T06:04:14.588Z,101805.69
2024-04-30T06:06:42.913Z,101796.19
2024-04-30T06:09:14.527Z,101777.91
2024-04-30T06:11:43.214Z,101766.16
2024-04-30T06:14:14.765Z,101793.59
2024-04-30T06:16:43.103Z,101805.28
2024-04-30T06:19:14.933Z,101777.56
2024-04-30T06:21:45.257Z,101775.25
2024-04-30T06:24:16.971Z,101779.91
2024-04-30T06:26:45.558Z,101875.78
2024-04-30T06:29:17.501Z,101866.88
2024-04-30T06:31:45.914Z,101877.22
2024-04-30T06:34:17.572Z,101893.19
2024-04-30T06:36:45.994Z,101886.13
2024-04-30T06:39:18.811Z,101881.31
2024-04-30T06:41:47.193Z,101869.78
2024-04-30T06:44:18.637Z,101885.63
2024-04-30T06:46:47.092Z,101868.50
2024-04-30T06:49:18.699Z,101884.28
2024-04-30T06:51:47.045Z,101890.31
2024-04-30T06:54:18.598Z,101896.53
2024-04-30T06:56:47.030Z,101890.56
2024-04-30T06:59:18.949Z,101892.53
2024-04-30T07:01:47.310Z,101900.97
2024-04-30T07:04:19.131Z,101902.13
2024-04-30T07:06:47.611Z,101891.69
2024-04-30T07:09:19.619Z,101874.53
2024-04-30T07:11:48.954Z,101883.44
2024-04-30T07:14:21.807Z,101863.50
2024-04-30T07:16:56.806Z,101794.50
2024-04-30T07:19:34.683Z,101830.41
2024-04-30T07:22:03.605Z,101852.53
2024-04-30T07:24:35.423Z,101876.56
2024-04-30T07:27:04.086Z,101876.78
2024-04-30T07:29:35.906Z,101875.03
2024-04-30T07:32:05.004Z,101876.28
2024-04-30T07:34:36.973Z,101875.25
2024-04-30T07:37:07.505Z,101870.63
2024-04-30T07:39:39.151Z,101859.25
2024-04-30T07:42:09.451Z,101874.50
2024-04-30T07:44:41.434Z,101864.56
2024-04-30T07:47:13.031Z,101884.00
2024-04-30T07:49:44.616Z,101864.59
2024-04-30T07:52:15.079Z,101859.47
2024-04-30T07:54:47.904Z,101865.34
2024-04-30T07:57:16.981Z,101851.06
2024-04-30T07:59:52.288Z,101875.00
2024-04-30T08:02:20.739Z,101870.38
2024-04-30T08:04:52.500Z,101869.22
2024-04-30T08:07:21.022Z,101851.06
2024-04-30T08:09:52.598Z,101873.13
2024-04-30T08:12:25.631Z,101870.69
2024-04-30T08:15:04.492Z,101872.19
2024-04-30T08:17:34.620Z,101841.31
2024-04-30T08:20:06.907Z,101869.03
2024-04-30T08:22:35.531Z,101854.63
2024-04-30T08:25:07.279Z,101871.47
2024-04-30T08:27:35.699Z,101873.81
2024-04-30T08:30:08.275Z,101864.34
2024-04-30T08:32:36.908Z,101873.25
2024-04-30T08:35:08.821Z,101860.88
2024-04-30T08:37:43.389Z,101859.81
2024-04-30T08:40:19.587Z,101864.16
2024-04-30T08:42:50.648Z,101866.00
2024-04-30T08:45:22.988Z,101874.88
2024-04-30T08:47:52.903Z,101861.84
2024-04-30T08:50:27.517Z,101857.25
2024-04-30T08:52:58.151Z,101865.53
2024-04-30T08:55:31.206Z,101837.34
2024-04-30T08:57:59.890Z,101860.72
2024-04-30T09:00:32.284Z,101867.53
2024-04-30T09:03:04.996Z,101855.75
2024-04-30T09:05:37.177Z,101848.34
2024-04-30T09:08:06.215Z,101838.66
2024-04-30T09:10:38.547Z,101840.06
2024-04-30T09:13:07.255Z,101815.53
2024-04-30T09:15:38.840Z,101829.00
2024-04-30T09:18:11.164Z,101832.16
2024-04-30T09:20:52.107Z,101819.38
2024-04-30T09:23:50.008Z,101827.09
2024-04-30T09:26:19.479Z,101807.41
2024-04-30T09:28:59.949Z,101813.13
2024-04-30T09:31:40.131Z,101804.59
2024-04-30T09:34:11.910Z,101817.75
2024-04-30T09:36:41.074Z,101802.84
2024-04-30T09:39:14.224Z,101816.75
2024-04-30T09:41:46.066Z,101807.56
2024-04-30T09:44:17.998Z,101807.94
2024-04-30T09:46:52.210Z,101820.88
2024-04-30T09:49:24.669Z,101803.72
2024-04-30T09:51:56.861Z,101805.78
2024-04-30T09:54:29.783Z,101807.34
2024-04-30T09:57:02.636Z,101800.97
2024-04-30T09:59:34.064Z,101803.41
2024-04-30T10:02:09.554Z,101790.41
2024-04-30T10:04:41.651Z,101799.59
2024-04-30T10:07:11.782Z,101790.00
2024-04-30T10:09:42.728Z,101796.72
2024-04-30T10:12:28.808Z,101778.59
2024-04-30T10:15:15.104Z,101799.06
2024-04-30T10:17:44.551Z,101779.63
2024-04-30T10:20:18.574Z,101800.47
2024-04-30T10:22:47.434Z,101779.19
2024-04-30T10:25:26.377Z,101798.25
2024-04-30T10:28:09.693Z,101802.19
2024-04-30T10:30:40.846Z,101793.44
2024-04-30T10:33:09.830Z,101804.72
2024-04-30T10:35:47.518Z,101795.94
2024-04-30T10:38:16.445Z,101804.91
2024-04-30T10:40:47.587Z,101805.66
2024-04-30T10:43:28.294Z,101787.91
2024-04-30T10:45:56.769Z,101779.53
2024-04-30T10:48:28.490Z,101767.84
2024-04-30T10:51:02.911Z,101778.38
2024-04-30T10:53:34.707Z,101779.31
2024-04-30T10:56:03.252Z,101764.72
2024-04-30T10:58:34.940Z,101772.06
2024-04-30T11:01:03.396Z,101778.56
2024-04-30T11:03:35.228Z,101751.78
2024-04-30T11:06:03.703Z,101768.25
2024-04-30T11:08:35.448Z,101765.47
2024-04-30T11:11:20.509Z,101744.25
2024-04-30T11:13:51.762Z,101746.19
2024-04-30T11:16:22.999Z,101746.66
2024-04-30T11:18:52.002Z,101761.78
2024-04-30T11:21:26.301Z,101762.06
2024-04-30T11:23:54.942Z,101759.69
2024-04-30T11:26:25.967Z,101765.56
2024-04-30T11:29:08.980Z,101762.50
2024-04-30T11:31:46.817Z,101759.09
2024-04-30T11:34:15.969Z,101695.47
2024-04-30T11:36:47.399Z,101760.75
2024-04-30T11:39:17.141Z,101757.78
2024-04-30T11:41:52.349Z,101755.09
2024-04-30T11:44:30.800Z,101746.22
2024-04-30T11:47:05.892Z,101766.41
2024-04-30T11:49:38.621Z,101761.75
2024-04-30T11:52:07.201Z,101766.91
2024-04-30T11:54:39.189Z,101773.88
2024-04-30T11:57:07.646Z,101758.28
2024-04-30T11:59:41.884Z,101755.25
2024-04-30T12:02:10.577Z,101748.06
2024-04-30T12:04:42.418Z,101749.09
2024-04-30T12:07:10.889Z,101758.72
2024-04-30T12:09:45.181Z,101757.41
2024-04-30T12:12:13.640Z,101717.44
2024-04-30T12:14:45.062Z,101765.66
2024-04-30T12:17:13.578Z,101760.47
2024-04-30T12:19:45.510Z,101736.78
2024-04-30T12:22:13.978Z,101749.38
2024-04-30T12:24:45.587Z,101716.31
2024-04-30T12:27:14.196Z,101740.91
2024-04-30T12:29:45.854Z,101753.31
2024-04-30T12:32:14.346Z,101746.63
2024-04-30T12:34:46.434Z,101735.44
2024-04-30T12:37:14.882Z,101729.28
2024-04-30T12:39:46.753Z,101733.81
2024-04-30T12:42:15.421Z,101726.69
2024-04-30T12:44:50.917Z,101697.53
2024-04-30T12:47:19.580Z,101698.66
2024-04-30T12:49:51.187Z,101714.03
2024-04-30T12:52:20.042Z,101711.03
2024-04-30T12:54:51.692Z,101692.34
2024-04-30T12:57:20.107Z,101705.47
2024-04-30T12:59:51.579Z,101715.56
2024-04-30T13:02:20.008Z,101716.53
2024-04-30T13:04:52.033Z,101709.97
2024-04-30T13:07:20.658Z,101709.03
2024-04-30T13:09:52.220Z,101710.09
2024-04-30T13:12:20.941Z,101701.19
2024-04-30T13:14:52.527Z,101682.38
2024-04-30T13:17:20.889Z,101687.94
2024-04-30T13:19:52.128Z,101679.88
2024-04-30T13:22:20.557Z,101668.34
2024-04-30T13:24:52.064Z,101649.19
2024-04-30T13:27:20.374Z,101653.44
2024-04-30T13:29:51.919Z,101663.66
2024-04-30T13:32:20.675Z,101660.75
2024-04-30T13:34:52.558Z,101666.81
2024-04-30T13:37:21.088Z,101669.66
2024-04-30T13:39:52.687Z,101662.72
2024-04-30T13:42:21.589Z,101663.75
2024-04-30T13:44:53.276Z,101651.59
2024-04-30T13:47:22.155Z,101628.69
2024-04-30T13:49:53.741Z,101636.66
2024-04-30T13:52:22.758Z,101641.47
2024-04-30T13:54:53.773Z,101651.22
2024-04-30T13:57:22.743Z,101647.44
2024-04-30T13:59:54.039Z,101649.59
2024-04-30T14:02:23.092Z,101644.91
2024-04-30T14:04:53.977Z,101658.50
2024-04-30T14:07:22.906Z,101653.88
2024-04-30T14:09:54.235Z,101583.16
2024-04-30T14:12:23.157Z,101646.50
2024-04-30T14:14:54.478Z,101619.44
2024-04-30T14:17:23.646Z,101641.75
2024-04-30T14:19:55.098Z,101639.94
2024-04-30T14:22:24.014Z,101622.13
2024-04-30T14:24:55.178Z,101624.03
2024-04-30T14:27:24.082Z,101607.41
2024-04-30T14:29:55.348Z,101587.81
2024-04-30T14:32:26.137Z,101628.91
2024-04-30T14:34:57.445Z,101602.00
2024-04-30T14:37:26.535Z,101600.91
2024-04-30T14:39:57.707Z,101618.28
2024-04-30T14:42:29.593Z,101626.78
2024-04-30T14:45:06.673Z,101611.00
2024-04-30T14:47:37.015Z,101619.50
2024-04-30T14:50:08.502Z,101590.78
2024-04-30T14:52:38.327Z,101612.72
2024-04-30T14:55:09.511Z,101602.19
2024-04-30T14:57:38.457Z,101595.16
2024-04-30T15:00:10.001Z,101605.13
2024-04-30T15:02:38.883Z,101602.06
2024-04-30T15:05:10.424Z,101609.72
2024-04-30T15:07:39.473Z,101576.34
2024-04-30T15:10:11.881Z,101575.00
2024-04-30T15:12:40.741Z,101561.34
2024-04-30T15:15:12.302Z,101576.53
2024-04-30T15:17:41.356Z,101574.44
2024-04-30T15:20:13.184Z,101580.22
2024-04-30T15:22:42.160Z,101565.75
2024-04-30T15:25:13.512Z,101551.78
2024-04-30T15:27:42.374Z,101568.25
2024-04-30T15:30:15.510Z,101562.06
2024-04-30T15:32:46.094Z,101555.56
2024-04-30T15:35:20.346Z,101558.38
2024-04-30T15:37:50.096Z,101549.63
2024-04-30T15:40:21.422Z,101539.03
2024-04-30T15:42:50.400Z,101537.50
2024-04-30T15:45:21.708Z,101494.28
2024-04-30T15:47:50.820Z,101538.56
2024-04-30T15:50:22.084Z,101533.38
2024-04-30T15:52:51.162Z,101526.47
2024-04-30T15:55:22.440Z,101537.19
2024-04-30T15:57:51.719Z,101513.28
2024-04-30T16:00:22.914Z,101520.94
2024-04-30T16:02:52.082Z,101498.59
2024-04-30T16:05:23.396Z,101529.94
2024-04-30T16:07:53.225Z,101511.41
2024-04-30T16:10:24.595Z,101442.22
2024-04-30T16:12:53.613Z,101475.44
2024-04-30T16:15:24.999Z,101517.69
2024-04-30T16:17:53.950Z,101508.63
2024-04-30T16:20:24.880Z,101518.75
2024-04-30T16:22:53.756Z,101509.31
2024-04-30T16:25:24.878Z,101515.34
2024-04-30T16:27:53.912Z,101497.84
2024-04-30T16:30:25.093Z,101501.44
2024-04-30T16:32:54.260Z,101492.38
2024-04-30T16:35:25.810Z,101499.66
2024-04-30T16:37:54.761Z,101473.03
2024-04-30T16:40:25.795Z,101504.94
2024-04-30T16:42:55.144Z,101499.59
2024-04-30T16:45:26.628Z,101505.31
2024-04-30T16:47:55.751Z,101508.97
2024-04-30T16:50:26.938Z,101513.66
2024-04-30T16:52:59.278Z,101491.84
2024-04-30T16:55:31.446Z,101459.31
2024-04-30T16:58:03.624Z,101494.72
2024-04-30T17:00:35.187Z,101500.53
2024-04-30T17:03:04.608Z,101482.84
2024-04-30T17:05:35.818Z,101493.03
2024-04-30T17:08:07.941Z,101478.53
2024-04-30T17:10:36.344Z,101497.81
2024-04-30T17:13:07.694Z,101493.78
2024-04-30T17:15:36.125Z,101495.63
2024-04-30T17:18:08.572Z,101493.44
2024-04-30T17:20:37.024Z,101492.09
2024-04-30T17:23:08.369Z,101494.03
2024-04-30T17:25:36.734Z,101484.59
2024-04-30T17:28:08.766Z,101497.50
2024-04-30T17:30:37.232Z,101484.91
2024-04-30T17:33:09.065Z,101506.72
2024-04-30T17:35:37.581Z,101479.03
2024-04-30T17:38:09.306Z,101496.63
2024-04-30T17:40:37.749Z,101475.09
2024-04-30T17:43:10.211Z,101481.28
2024-04-30T17:45:38.855Z,101439.53
2024-04-30T17:48:11.418Z,101496.88
2024-04-30T17:50:39.928Z,101492.09
2024-04-30T17:53:11.222Z,101501.25
2024-04-30T17:55:42.189Z,101493.81
2024-04-30T17:58:11.613Z,101495.41
2024-04-30T18:00:42.441Z,101501.22
2024-04-30T18:03:11.955Z,101505.44
2024-04-30T18:05:43.130Z,101502.81
2024-04-30T18:08:11.990Z,101503.72
2024-04-30T18:10:49.530Z,101491.59
2024-04-30T18:13:25.559Z,101496.34
2024-04-30T18:15:54.347Z,101489.94
2024-04-30T18:18:25.920Z,101493.16
2024-04-30T18:20:54.757Z,101479.69
2024-04-30T18:23:26.593Z,101494.53
2024-04-30T18:25:55.124Z,101488.78
2024-04-30T18:28:27.045Z,101441.00
2024-04-30T18:30:58.173Z,101467.63
2024-04-30T18:33:27.118Z,101495.97
2024-04-30T18:35:58.356Z,101502.38
2024-04-30T18:38:27.247Z,101496.50
2024-04-30T18:41:00.081Z,101472.25
2024-04-30T18:43:34.258Z,101502.31
2024-04-30T18:46:05.801Z,101449.44
2024-04-30T18:48:35.427Z,101358.34
2024-04-30T18:51:06.732Z,101510.81
2024-04-30T18:53:38.453Z,101515.56
2024-04-30T18:56:10.406Z,101499.53
2024-04-30T18:58:39.538Z,101519.00
2024-04-30T19:01:11.459Z,101508.41
2024-04-30T19:03:40.996Z,101524.41
2024-04-30T19:06:14.490Z,101497.03
2024-04-30T19:08:48.274Z,101522.13
2024-04-30T19:11:20.568Z,101405.84
2024-04-30T19:13:52.992Z,101463.75
2024-04-30T19:16:24.875Z,101380.06
2024-04-30T19:18:54.379Z,101460.53
2024-04-30T19:21:28.675Z,101494.03
2024-04-30T19:23:57.646Z,101489.28
2024-04-30T19:26:28.996Z,101509.22
2024-04-30T19:29:09.818Z,101492.50
2024-04-30T19:32:11.525Z,101507.13
2024-04-30T19:34:44.477Z,101510.25
2024-04-30T19:37:13.670Z,101511.34
2024-04-30T19:39:46.439Z,101520.66
2024-04-30T19:42:15.294Z,101406.91
2024-04-30T19:44:53.654Z,101216.38
2024-04-30T19:47:22.426Z,101273.72
2024-04-30T19:50:41.679Z,101521.75
2024-04-30T19:53:14.584Z,101517.66
2024-04-30T19:55:47.883Z,101519.94
2024-04-30T19:58:17.306Z,101520.00
2024-04-30T20:00:50.697Z,101510.75
2024-04-30T20:03:19.811Z,101368.53
2024-04-30T20:05:52.085Z,101476.06
2024-04-30T20:08:20.911Z,101489.03
2024-04-30T20:10:53.488Z,101521.66
2024-04-30T20:13:24.579Z,101509.91
2024-04-30T20:15:56.306Z,101472.44
2024-04-30T20:18:25.136Z,101522.19
2024-04-30T20:20:56.805Z,101530.50
2024-04-30T20:23:28.130Z,101464.34
2024-04-30T20:26:00.177Z,101520.50
2024-04-30T20:28:28.795Z,101446.31
2024-04-30T20:31:02.794Z,101489.16
2024-04-30T20:33:34.480Z,101514.38
2024-04-30T20:36:03.684Z,101491.72
2024-04-30T20:38:36.924Z,101501.44
2024-04-30T20:41:13.417Z,101467.25
2024-04-30T20:43:42.324Z,101530.34
2024-04-30T20:46:14.392Z,101494.81
2024-04-30T20:48:45.757Z,101515.81
2024-04-30T20:51:18.932Z,101509.31
2024-04-30T20:53:47.528Z,101520.63
2024-04-30T20:56:19.179Z,101524.34
2024-04-30T20:58:47.783Z,101532.44
2024-04-30T21:01:20.525Z,101477.38
2024-04-30T21:03:49.544Z,101523.50
2024-04-30T21:06:21.627Z,101516.38
2024-04-30T21:08:50.256Z,101534.25
2024-04-30T21:11:22.526Z,101459.53
2024-04-30T21:13:52.283Z,101493.75
2024-04-30T21:16:25.247Z,101454.63
2024-04-30T21:18:54.222Z,101467.50
2024-04-30T21:21:26.881Z,101515.06
2024-04-30T21:23:55.483Z,101493.63
2024-04-30T21:26:27.678Z,101520.13
2024-04-30T21:28:56.172Z,101522.03
2024-04-30T21:31:28.250Z,101488.31
2024-04-30T21:33:56.892Z,101516.66
2024-04-30T21:36:29.319Z,101460.28
2024-04-30T21:38:57.929Z,101432.19
2024-04-30T21:41:30.270Z,101530.00
2024-04-30T21:43:58.800Z,101528.09
2024-04-30T21:46:30.509Z,101508.44
2024-04-30T21:49:01.994Z,101409.09
2024-04-30T21:51:33.782Z,101428.13
2024-04-30T21:54:02.423Z,101488.81
2024-04-30T21:56:34.094Z,101513.03
2024-04-30T21:59:03.185Z,101469.44
2024-04-30T22:01:36.550Z,101515.09
2024-04-30T22:04:05.193Z,101512.06
2024-04-30T22:06:36.888Z,101507.56
2024-04-30T22:09:05.268Z,101482.63
2024-04-30T22:11:37.988Z,101512.47
2024-04-30T22:14:06.767Z,101484.06
2024-04-30T22:16:39.007Z,101507.91
2024-04-30T22:19:07.764Z,101484.63
2024-04-30T22:21:39.884Z,101494.75
2024-04-30T22:24:08.661Z,101480.50
2024-04-30T22:26:40.362Z,101509.69
2024-04-30T22:29:08.787Z,101511.47
2024-04-30T22:31:40.362Z,101519.78
2024-04-30T22:34:09.150Z,101483.63
2024-04-30T22:36:41.683Z,101475.56
2024-04-30T22:39:11.090Z,101456.78
2024-04-30T22:41:43.209Z,101510.00
2024-04-30T22:44:14.303Z,101520.88
2024-04-30T22:46:43.887Z,101483.00
2024-04-30T22:49:15.581Z,101517.94
2024-04-30T22:51:44.802Z,101514.06
2024-04-30T22:54:16.283Z,101457.53
2024-04-30T22:56:46.066Z,101525.38
2024-04-30T22:59:17.423Z,101498.38
2024-04-30T23:01:48.394Z,101517.28
2024-04-30T23:04:21.872Z,101467.19
2024-04-30T23:06:51.066Z,101512.91
2024-04-30T23:09:22.781Z,101455.72
2024-04-30T23:11:52.014Z,101460.22
2024-04-30T23:14:23.209Z,101507.22
2024-04-30T23:16:52.747Z,101409.13
2024-04-30T23:19:23.914Z,101460.25
2024-04-30T23:21:53.266Z,101495.03
2024-04-30T23:24:24.564Z,101460.69
2024-04-30T23:26:53.937Z,101466.38
2024-04-30T23:29:27.725Z,101463.59
2024-04-30T23:31:57.348Z,101491.59
2024-04-30T23:34:29.090Z,101494.13
2024-04-30T23:37:00.312Z,101489.94
2024-04-30T23:39:31.421Z,101418.97
2024-04-30T23:42:03.282Z,101496.66
2024-04-30T23:44:34.680Z,101489.28
2024-04-30T23:47:05.150Z,101490.88
2024-04-30T23:49:36.412Z,101485.84
2024-04-30T23:52:07.432Z,101476.34
2024-04-30T23:54:39.053Z,101462.84
2024-04-30T23:57:08.038Z,101448.59
2024-04-30T23:59:42.132Z,101478.59
